sensor_id;sensor_type;location;lat;lon;timestamp;P1;durP1;ratioP1;P2;durP2;ratioP2
40288;SDS011;28991;52.028;5.526;2024-03-25T00:01:35;0.88;;;0.70;;
40288;SDS011;28991;52.028;5.526;2024-03-25T00:04:00;1.17;;;0.40;;
40288;SDS011;28991;52.028;5.526;2024-03-25T00:06:26;0.70;;;0.50;;
40288;SDS011;28991;52.028;5.526;2024-03-25T00:08:51;1.00;;;0.55;;
40288;SDS011;28991;52.028;5.526;2024-03-25T00:11:17;0.68;;;0.50;;
40288;SDS011;28991;52.028;5.526;2024-03-25T00:13:43;1.35;;;0.60;;
40288;SDS011;28991;52.028;5.526;2024-03-25T00:16:08;0.77;;;0.70;;
40288;SDS011;28991;52.028;5.526;2024-03-25T00:18:34;0.93;;;0.65;;
40288;SDS011;28991;52.028;5.526;2024-03-25T00:20:59;0.50;;;0.50;;
40288;SDS011;28991;52.028;5.526;2024-03-25T00:23:25;0.80;;;0.63;;
40288;SDS011;28991;52.028;5.526;2024-03-25T00:25:50;0.95;;;0.60;;
40288;SDS011;28991;52.028;5.526;2024-03-25T00:28:19;1.48;;;0.70;;
40288;SDS011;28991;52.028;5.526;2024-03-25T00:30:44;1.77;;;0.73;;
40288;SDS011;28991;52.028;5.526;2024-03-25T00:33:10;1.58;;;0.63;;
40288;SDS011;28991;52.028;5.526;2024-03-25T00:35:36;0.88;;;0.65;;
40288;SDS011;28991;52.028;5.526;2024-03-25T00:38:02;0.70;;;0.50;;
40288;SDS011;28991;52.028;5.526;2024-03-25T00:40:27;1.10;;;0.57;;
40288;SDS011;28991;52.028;5.526;2024-03-25T00:42:53;1.55;;;0.77;;
40288;SDS011;28991;52.028;5.526;2024-03-25T00:45:18;0.70;;;0.50;;
40288;SDS011;28991;52.028;5.526;2024-03-25T00:47:45;2.53;;;0.90;;
40288;SDS011;28991;52.028;5.526;2024-03-25T00:50:10;0.85;;;0.47;;
40288;SDS011;28991;52.028;5.526;2024-03-25T00:52:36;2.28;;;0.60;;
40288;SDS011;28991;52.028;5.526;2024-03-25T00:55:01;1.65;;;0.80;;
40288;SDS011;28991;52.028;5.526;2024-03-25T00:57:27;0.70;;;0.63;;
40288;SDS011;28991;52.028;5.526;2024-03-25T00:59:54;1.83;;;0.60;;
40288;SDS011;28991;52.028;5.526;2024-03-25T01:02:20;0.95;;;0.50;;
40288;SDS011;28991;52.028;5.526;2024-03-25T01:04:46;1.65;;;0.52;;
40288;SDS011;28991;52.028;5.526;2024-03-25T01:07:11;0.90;;;0.52;;
40288;SDS011;28991;52.028;5.526;2024-03-25T01:09:37;1.25;;;0.60;;
40288;SDS011;28991;52.028;5.526;2024-03-25T01:12:03;0.52;;;0.52;;
40288;SDS011;28991;52.028;5.526;2024-03-25T01:14:29;1.45;;;0.73;;
40288;SDS011;28991;52.028;5.526;2024-03-25T01:16:54;0.77;;;0.52;;
40288;SDS011;28991;52.028;5.526;2024-03-25T01:19:20;1.20;;;0.68;;
40288;SDS011;28991;52.028;5.526;2024-03-25T01:21:46;0.82;;;0.63;;
40288;SDS011;28991;52.028;5.526;2024-03-25T01:24:12;0.75;;;0.40;;
40288;SDS011;28991;52.028;5.526;2024-03-25T01:26:37;1.13;;;0.50;;
40288;SDS011;28991;52.028;5.526;2024-03-25T01:29:03;1.45;;;0.65;;
40288;SDS011;28991;52.028;5.526;2024-03-25T01:31:28;1.27;;;0.70;;
40288;SDS011;28991;52.028;5.526;2024-03-25T01:33:54;1.13;;;0.47;;
40288;SDS011;28991;52.028;5.526;2024-03-25T01:36:20;2.08;;;0.73;;
40288;SDS011;28991;52.028;5.526;2024-03-25T01:38:45;1.15;;;0.60;;
40288;SDS011;28991;52.028;5.526;2024-03-25T01:41:12;2.60;;;0.80;;
40288;SDS011;28991;52.028;5.526;2024-03-25T01:43:40;0.88;;;0.65;;
40288;SDS011;28991;52.028;5.526;2024-03-25T01:46:05;1.10;;;0.70;;
40288;SDS011;28991;52.028;5.526;2024-03-25T01:48:32;1.20;;;0.52;;
40288;SDS011;28991;52.028;5.526;2024-03-25T01:50:58;0.95;;;0.63;;
40288;SDS011;28991;52.028;5.526;2024-03-25T01:53:25;1.38;;;0.60;;
40288;SDS011;28991;52.028;5.526;2024-03-25T01:55:52;0.90;;;0.45;;
40288;SDS011;28991;52.028;5.526;2024-03-25T01:58:21;1.85;;;0.70;;
40288;SDS011;28991;52.028;5.526;2024-03-25T02:00:47;1.27;;;0.63;;
40288;SDS011;28991;52.028;5.526;2024-03-25T02:03:14;2.13;;;0.75;;
40288;SDS011;28991;52.028;5.526;2024-03-25T02:05:40;1.42;;;0.50;;
40288;SDS011;28991;52.028;5.526;2024-03-25T02:08:06;1.23;;;0.50;;
40288;SDS011;28991;52.028;5.526;2024-03-25T02:10:31;1.10;;;0.80;;
40288;SDS011;28991;52.028;5.526;2024-03-25T02:12:57;2.35;;;0.75;;
40288;SDS011;28991;52.028;5.526;2024-03-25T02:15:23;1.20;;;0.70;;
40288;SDS011;28991;52.028;5.526;2024-03-25T02:17:51;1.30;;;0.68;;
40288;SDS011;28991;52.028;5.526;2024-03-25T02:20:17;0.73;;;0.52;;
40288;SDS011;28991;52.028;5.526;2024-03-25T02:22:43;1.60;;;0.68;;
40288;SDS011;28991;52.028;5.526;2024-03-25T02:25:09;0.95;;;0.60;;
40288;SDS011;28991;52.028;5.526;2024-03-25T02:27:36;0.90;;;0.50;;
40288;SDS011;28991;52.028;5.526;2024-03-25T02:30:05;1.30;;;0.60;;
40288;SDS011;28991;52.028;5.526;2024-03-25T02:32:32;2.13;;;0.50;;
40288;SDS011;28991;52.028;5.526;2024-03-25T02:34:59;1.58;;;0.63;;
40288;SDS011;28991;52.028;5.526;2024-03-25T02:37:25;0.77;;;0.50;;
40288;SDS011;28991;52.028;5.526;2024-03-25T02:39:53;1.10;;;0.55;;
40288;SDS011;28991;52.028;5.526;2024-03-25T02:42:22;1.20;;;0.60;;
40288;SDS011;28991;52.028;5.526;2024-03-25T02:44:48;1.88;;;0.73;;
40288;SDS011;28991;52.028;5.526;2024-03-25T02:47:13;1.52;;;0.75;;
40288;SDS011;28991;52.028;5.526;2024-03-25T02:49:39;1.38;;;0.52;;
40288;SDS011;28991;52.028;5.526;2024-03-25T02:52:05;1.42;;;0.60;;
40288;SDS011;28991;52.028;5.526;2024-03-25T02:54:31;0.85;;;0.60;;
40288;SDS011;28991;52.028;5.526;2024-03-25T02:56:56;1.48;;;0.80;;
40288;SDS011;28991;52.028;5.526;2024-03-25T02:59:22;0.93;;;0.70;;
40288;SDS011;28991;52.028;5.526;2024-03-25T03:01:47;2.38;;;0.57;;
40288;SDS011;28991;52.028;5.526;2024-03-25T03:04:13;1.25;;;0.60;;
40288;SDS011;28991;52.028;5.526;2024-03-25T03:06:38;0.98;;;0.77;;
40288;SDS011;28991;52.028;5.526;2024-03-25T03:09:04;0.98;;;0.57;;
40288;SDS011;28991;52.028;5.526;2024-03-25T03:11:30;0.93;;;0.52;;
40288;SDS011;28991;52.028;5.526;2024-03-25T03:13:56;0.88;;;0.50;;
40288;SDS011;28991;52.028;5.526;2024-03-25T03:16:21;0.70;;;0.63;;
40288;SDS011;28991;52.028;5.526;2024-03-25T03:18:47;1.48;;;0.98;;
40288;SDS011;28991;52.028;5.526;2024-03-25T03:21:12;1.00;;;0.50;;
40288;SDS011;28991;52.028;5.526;2024-03-25T03:23:38;1.10;;;0.43;;
40288;SDS011;28991;52.028;5.526;2024-03-25T03:26:03;0.60;;;0.40;;
40288;SDS011;28991;52.028;5.526;2024-03-25T03:28:29;1.25;;;0.50;;
40288;SDS011;28991;52.028;5.526;2024-03-25T03:30:54;1.08;;;0.65;;
40288;SDS011;28991;52.028;5.526;2024-03-25T03:33:20;1.30;;;0.60;;
40288;SDS011;28991;52.028;5.526;2024-03-25T03:35:46;2.22;;;0.88;;
40288;SDS011;28991;52.028;5.526;2024-03-25T03:38:11;1.52;;;0.68;;
40288;SDS011;28991;52.028;5.526;2024-03-25T03:40:37;0.90;;;0.68;;
40288;SDS011;28991;52.028;5.526;2024-03-25T03:43:03;1.48;;;0.82;;
40288;SDS011;28991;52.028;5.526;2024-03-25T03:45:32;1.25;;;0.80;;
40288;SDS011;28991;52.028;5.526;2024-03-25T03:47:59;0.80;;;0.52;;
40288;SDS011;28991;52.028;5.526;2024-03-25T03:50:25;0.88;;;0.60;;
40288;SDS011;28991;52.028;5.526;2024-03-25T03:52:50;1.48;;;0.70;;
40288;SDS011;28991;52.028;5.526;2024-03-25T03:55:16;0.70;;;0.60;;
40288;SDS011;28991;52.028;5.526;2024-03-25T03:57:41;2.00;;;0.60;;
40288;SDS011;28991;52.028;5.526;2024-03-25T04:00:08;1.80;;;0.63;;
40288;SDS011;28991;52.028;5.526;2024-03-25T04:02:36;2.25;;;0.50;;
40288;SDS011;28991;52.028;5.526;2024-03-25T04:05:03;1.65;;;0.50;;
40288;SDS011;28991;52.028;5.526;2024-03-25T04:07:29;1.33;;;0.70;;
40288;SDS011;28991;52.028;5.526;2024-03-25T04:09:57;1.77;;;0.55;;
40288;SDS011;28991;52.028;5.526;2024-03-25T04:12:24;1.48;;;0.60;;
40288;SDS011;28991;52.028;5.526;2024-03-25T04:14:49;1.10;;;0.60;;
40288;SDS011;28991;52.028;5.526;2024-03-25T04:17:20;0.95;;;0.60;;
40288;SDS011;28991;52.028;5.526;2024-03-25T04:19:50;0.93;;;0.75;;
40288;SDS011;28991;52.028;5.526;2024-03-25T04:22:15;1.02;;;0.60;;
40288;SDS011;28991;52.028;5.526;2024-03-25T04:24:42;0.95;;;0.43;;
40288;SDS011;28991;52.028;5.526;2024-03-25T04:27:08;1.63;;;0.70;;
40288;SDS011;28991;52.028;5.526;2024-03-25T04:29:34;1.42;;;0.77;;
40288;SDS011;28991;52.028;5.526;2024-03-25T04:31:59;1.55;;;0.65;;
40288;SDS011;28991;52.028;5.526;2024-03-25T04:34:25;0.98;;;0.52;;
40288;SDS011;28991;52.028;5.526;2024-03-25T04:36:51;1.15;;;0.70;;
40288;SDS011;28991;52.028;5.526;2024-03-25T04:39:16;0.93;;;0.63;;
40288;SDS011;28991;52.028;5.526;2024-03-25T04:41:43;0.88;;;0.50;;
40288;SDS011;28991;52.028;5.526;2024-03-25T04:44:08;0.93;;;0.60;;
40288;SDS011;28991;52.028;5.526;2024-03-25T04:46:34;1.33;;;0.70;;
40288;SDS011;28991;52.028;5.526;2024-03-25T04:49:00;0.77;;;0.68;;
40288;SDS011;28991;52.028;5.526;2024-03-25T04:51:25;1.27;;;0.70;;
40288;SDS011;28991;52.028;5.526;2024-03-25T04:53:51;0.60;;;0.50;;
40288;SDS011;28991;52.028;5.526;2024-03-25T04:56:18;1.55;;;0.80;;
40288;SDS011;28991;52.028;5.526;2024-03-25T04:58:43;0.85;;;0.50;;
40288;SDS011;28991;52.028;5.526;2024-03-25T05:01:09;1.05;;;0.60;;
40288;SDS011;28991;52.028;5.526;2024-03-25T05:03:34;1.33;;;0.60;;
40288;SDS011;28991;52.028;5.526;2024-03-25T05:06:00;1.42;;;0.60;;
40288;SDS011;28991;52.028;5.526;2024-03-25T05:08:25;0.80;;;0.50;;
40288;SDS011;28991;52.028;5.526;2024-03-25T05:10:51;1.38;;;0.70;;
40288;SDS011;28991;52.028;5.526;2024-03-25T05:13:17;1.77;;;0.60;;
40288;SDS011;28991;52.028;5.526;2024-03-25T05:15:49;1.67;;;0.70;;
40288;SDS011;28991;52.028;5.526;2024-03-25T05:18:15;1.00;;;0.68;;
40288;SDS011;28991;52.028;5.526;2024-03-25T05:20:41;1.25;;;0.65;;
40288;SDS011;28991;52.028;5.526;2024-03-25T05:23:07;0.68;;;0.50;;
40288;SDS011;28991;52.028;5.526;2024-03-25T05:25:32;0.98;;;0.68;;
40288;SDS011;28991;52.028;5.526;2024-03-25T05:28:00;1.10;;;0.60;;
40288;SDS011;28991;52.028;5.526;2024-03-25T05:30:25;0.80;;;0.68;;
40288;SDS011;28991;52.028;5.526;2024-03-25T05:32:51;1.00;;;0.60;;
40288;SDS011;28991;52.028;5.526;2024-03-25T05:35:16;0.57;;;0.50;;
40288;SDS011;28991;52.028;5.526;2024-03-25T05:37:42;1.25;;;0.82;;
40288;SDS011;28991;52.028;5.526;2024-03-25T05:40:08;0.70;;;0.50;;
40288;SDS011;28991;52.028;5.526;2024-03-25T05:42:36;1.10;;;0.63;;
40288;SDS011;28991;52.028;5.526;2024-03-25T05:45:02;1.75;;;0.63;;
40288;SDS011;28991;52.028;5.526;2024-03-25T05:47:28;0.77;;;0.55;;
40288;SDS011;28991;52.028;5.526;2024-03-25T05:49:53;0.80;;;0.57;;
40288;SDS011;28991;52.028;5.526;2024-03-25T05:52:19;0.90;;;0.70;;
40288;SDS011;28991;52.028;5.526;2024-03-25T05:54:45;1.02;;;0.68;;
40288;SDS011;28991;52.028;5.526;2024-03-25T05:57:10;1.90;;;0.60;;
40288;SDS011;28991;52.028;5.526;2024-03-25T05:59:36;1.48;;;0.82;;
40288;SDS011;28991;52.028;5.526;2024-03-25T06:02:01;2.25;;;1.10;;
40288;SDS011;28991;52.028;5.526;2024-03-25T06:04:27;1.85;;;1.15;;
40288;SDS011;28991;52.028;5.526;2024-03-25T06:06:52;1.50;;;0.80;;
40288;SDS011;28991;52.028;5.526;2024-03-25T06:09:18;1.50;;;0.88;;
40288;SDS011;28991;52.028;5.526;2024-03-25T06:11:43;1.55;;;0.52;;
40288;SDS011;28991;52.028;5.526;2024-03-25T06:14:09;1.77;;;0.70;;
40288;SDS011;28991;52.028;5.526;2024-03-25T06:16:34;1.20;;;0.80;;
40288;SDS011;28991;52.028;5.526;2024-03-25T06:19:00;1.35;;;0.70;;
40288;SDS011;28991;52.028;5.526;2024-03-25T06:21:25;1.00;;;0.63;;
40288;SDS011;28991;52.028;5.526;2024-03-25T06:23:51;1.23;;;0.70;;
40288;SDS011;28991;52.028;5.526;2024-03-25T06:26:17;1.05;;;0.80;;
40288;SDS011;28991;52.028;5.526;2024-03-25T06:28:42;1.25;;;0.80;;
40288;SDS011;28991;52.028;5.526;2024-03-25T06:31:08;1.92;;;0.88;;
40288;SDS011;28991;52.028;5.526;2024-03-25T06:33:52;1.48;;;0.77;;
40288;SDS011;28991;52.028;5.526;2024-03-25T06:36:36;1.42;;;0.60;;
40288;SDS011;28991;52.028;5.526;2024-03-25T06:39:02;1.10;;;0.70;;
40288;SDS011;28991;52.028;5.526;2024-03-25T06:41:28;1.10;;;0.80;;
40288;SDS011;28991;52.028;5.526;2024-03-25T06:43:53;0.63;;;0.50;;
40288;SDS011;28991;52.028;5.526;2024-03-25T06:46:19;1.00;;;0.60;;
40288;SDS011;28991;52.028;5.526;2024-03-25T06:48:45;2.13;;;0.73;;
40288;SDS011;28991;52.028;5.526;2024-03-25T06:51:11;0.98;;;0.80;;
40288;SDS011;28991;52.028;5.526;2024-03-25T06:53:36;0.40;;;0.40;;
40288;SDS011;28991;52.028;5.526;2024-03-25T06:56:02;0.55;;;0.47;;
40288;SDS011;28991;52.028;5.526;2024-03-25T06:58:28;1.50;;;0.82;;
40288;SDS011;28991;52.028;5.526;2024-03-25T07:00:54;1.30;;;0.55;;
40288;SDS011;28991;52.028;5.526;2024-03-25T07:03:21;1.02;;;0.55;;
40288;SDS011;28991;52.028;5.526;2024-03-25T07:05:49;1.80;;;0.80;;
40288;SDS011;28991;52.028;5.526;2024-03-25T07:08:20;0.70;;;0.60;;
40288;SDS011;28991;52.028;5.526;2024-03-25T07:10:45;0.40;;;0.40;;
40288;SDS011;28991;52.028;5.526;2024-03-25T07:13:11;1.10;;;0.52;;
40288;SDS011;28991;52.028;5.526;2024-03-25T07:15:37;0.73;;;0.47;;
40288;SDS011;28991;52.028;5.526;2024-03-25T07:18:03;1.25;;;0.88;;
40288;SDS011;28991;52.028;5.526;2024-03-25T07:20:30;0.95;;;0.75;;
40288;SDS011;28991;52.028;5.526;2024-03-25T07:22:55;1.25;;;0.88;;
40288;SDS011;28991;52.028;5.526;2024-03-25T07:25:22;2.10;;;0.70;;
40288;SDS011;28991;52.028;5.526;2024-03-25T07:27:51;1.25;;;0.80;;
40288;SDS011;28991;52.028;5.526;2024-03-25T07:30:17;2.05;;;0.80;;
40288;SDS011;28991;52.028;5.526;2024-03-25T07:32:43;0.88;;;0.63;;
40288;SDS011;28991;52.028;5.526;2024-03-25T07:35:12;1.70;;;0.60;;
40288;SDS011;28991;52.028;5.526;2024-03-25T07:37:38;1.88;;;0.80;;
40288;SDS011;28991;52.028;5.526;2024-03-25T07:40:04;1.77;;;0.65;;
40288;SDS011;28991;52.028;5.526;2024-03-25T07:42:30;0.90;;;0.70;;
40288;SDS011;28991;52.028;5.526;2024-03-25T07:44:56;1.00;;;0.70;;
40288;SDS011;28991;52.028;5.526;2024-03-25T07:47:22;1.08;;;0.70;;
40288;SDS011;28991;52.028;5.526;2024-03-25T07:49:47;2.80;;;0.80;;
40288;SDS011;28991;52.028;5.526;2024-03-25T07:52:13;1.38;;;0.80;;
40288;SDS011;28991;52.028;5.526;2024-03-25T07:54:38;4.78;;;0.85;;
40288;SDS011;28991;52.028;5.526;2024-03-25T07:57:04;2.67;;;0.90;;
40288;SDS011;28991;52.028;5.526;2024-03-25T07:59:30;1.40;;;0.77;;
40288;SDS011;28991;52.028;5.526;2024-03-25T08:01:55;2.38;;;0.90;;
40288;SDS011;28991;52.028;5.526;2024-03-25T08:04:21;1.27;;;0.77;;
40288;SDS011;28991;52.028;5.526;2024-03-25T08:06:46;2.53;;;1.08;;
40288;SDS011;28991;52.028;5.526;2024-03-25T08:09:12;1.77;;;0.90;;
40288;SDS011;28991;52.028;5.526;2024-03-25T08:11:40;2.05;;;0.95;;
40288;SDS011;28991;52.028;5.526;2024-03-25T08:14:08;1.08;;;0.68;;
40288;SDS011;28991;52.028;5.526;2024-03-25T08:16:34;0.68;;;0.50;;
40288;SDS011;28991;52.028;5.526;2024-03-25T08:19:00;1.98;;;0.70;;
40288;SDS011;28991;52.028;5.526;2024-03-25T08:21:26;1.25;;;0.80;;
40288;SDS011;28991;52.028;5.526;2024-03-25T08:23:51;1.63;;;0.63;;
40288;SDS011;28991;52.028;5.526;2024-03-25T08:26:17;1.33;;;0.70;;
40288;SDS011;28991;52.028;5.526;2024-03-25T08:28:42;1.38;;;0.80;;
40288;SDS011;28991;52.028;5.526;2024-03-25T08:31:08;2.60;;;0.70;;
40288;SDS011;28991;52.028;5.526;2024-03-25T08:33:33;1.45;;;0.80;;
40288;SDS011;28991;52.028;5.526;2024-03-25T08:35:59;1.08;;;0.70;;
40288;SDS011;28991;52.028;5.526;2024-03-25T08:38:24;2.80;;;1.08;;
40288;SDS011;28991;52.028;5.526;2024-03-25T08:40:50;1.65;;;1.17;;
40288;SDS011;28991;52.028;5.526;2024-03-25T08:43:16;1.58;;;0.80;;
40288;SDS011;28991;52.028;5.526;2024-03-25T08:45:42;2.63;;;1.08;;
40288;SDS011;28991;52.028;5.526;2024-03-25T08:48:08;4.40;;;1.08;;
40288;SDS011;28991;52.028;5.526;2024-03-25T08:50:34;3.92;;;1.05;;
40288;SDS011;28991;52.028;5.526;2024-03-25T08:53:00;3.20;;;1.15;;
40288;SDS011;28991;52.028;5.526;2024-03-25T08:55:26;2.22;;;0.88;;
40288;SDS011;28991;52.028;5.526;2024-03-25T08:57:52;1.65;;;0.93;;
40288;SDS011;28991;52.028;5.526;2024-03-25T09:00:18;1.75;;;0.68;;
40288;SDS011;28991;52.028;5.526;2024-03-25T09:02:44;4.75;;;1.40;;
40288;SDS011;28991;52.028;5.526;2024-03-25T09:05:09;1.20;;;0.75;;
40288;SDS011;28991;52.028;5.526;2024-03-25T09:07:35;4.72;;;0.93;;
40288;SDS011;28991;52.028;5.526;2024-03-25T09:10:01;2.00;;;1.02;;
40288;SDS011;28991;52.028;5.526;2024-03-25T09:12:46;1.25;;;0.80;;
40288;SDS011;28991;52.028;5.526;2024-03-25T09:15:11;1.00;;;0.80;;
40288;SDS011;28991;52.028;5.526;2024-03-25T09:17:37;3.10;;;0.95;;
40288;SDS011;28991;52.028;5.526;2024-03-25T09:20:04;1.42;;;0.68;;
40288;SDS011;28991;52.028;5.526;2024-03-25T09:22:41;1.60;;;0.88;;
40288;SDS011;28991;52.028;5.526;2024-03-25T09:25:07;1.35;;;0.90;;
40288;SDS011;28991;52.028;5.526;2024-03-25T09:27:32;1.90;;;0.93;;
40288;SDS011;28991;52.028;5.526;2024-03-25T09:29:58;1.30;;;0.70;;
40288;SDS011;28991;52.028;5.526;2024-03-25T09:32:23;1.13;;;0.70;;
40288;SDS011;28991;52.028;5.526;2024-03-25T09:34:50;2.47;;;0.70;;
40288;SDS011;28991;52.028;5.526;2024-03-25T09:37:16;2.25;;;0.57;;
40288;SDS011;28991;52.028;5.526;2024-03-25T09:39:42;1.65;;;0.90;;
40288;SDS011;28991;52.028;5.526;2024-03-25T09:42:08;2.58;;;0.80;;
40288;SDS011;28991;52.028;5.526;2024-03-25T09:44:36;3.75;;;0.90;;
40288;SDS011;28991;52.028;5.526;2024-03-25T09:47:02;2.00;;;1.00;;
40288;SDS011;28991;52.028;5.526;2024-03-25T09:49:28;5.28;;;1.05;;
40288;SDS011;28991;52.028;5.526;2024-03-25T09:51:55;6.47;;;1.52;;
40288;SDS011;28991;52.028;5.526;2024-03-25T09:54:20;4.05;;;1.60;;
40288;SDS011;28991;52.028;5.526;2024-03-25T09:56:46;4.72;;;1.00;;
40288;SDS011;28991;52.028;5.526;2024-03-25T09:59:13;6.30;;;1.27;;
40288;SDS011;28991;52.028;5.526;2024-03-25T10:01:39;8.00;;;1.10;;
40288;SDS011;28991;52.028;5.526;2024-03-25T10:04:04;4.70;;;1.20;;
40288;SDS011;28991;52.028;5.526;2024-03-25T10:06:30;4.93;;;1.30;;
40288;SDS011;28991;52.028;5.526;2024-03-25T10:08:57;3.47;;;1.05;;
40288;SDS011;28991;52.028;5.526;2024-03-25T10:11:22;8.98;;;1.40;;
40288;SDS011;28991;52.028;5.526;2024-03-25T10:13:48;3.58;;;1.10;;
40288;SDS011;28991;52.028;5.526;2024-03-25T10:16:13;11.48;;;1.45;;
40288;SDS011;28991;52.028;5.526;2024-03-25T10:18:39;2.92;;;1.45;;
40288;SDS011;28991;52.028;5.526;2024-03-25T10:21:06;4.45;;;1.33;;
40288;SDS011;28991;52.028;5.526;2024-03-25T10:23:35;3.58;;;1.30;;
40288;SDS011;28991;52.028;5.526;2024-03-25T10:26:05;7.05;;;1.08;;
40288;SDS011;28991;52.028;5.526;2024-03-25T10:28:31;5.40;;;1.30;;
40288;SDS011;28991;52.028;5.526;2024-03-25T10:31:02;3.58;;;1.40;;
40288;SDS011;28991;52.028;5.526;2024-03-25T10:33:29;4.60;;;1.17;;
40288;SDS011;28991;52.028;5.526;2024-03-25T10:35:54;5.07;;;1.13;;
40288;SDS011;28991;52.028;5.526;2024-03-25T10:38:22;3.67;;;1.13;;
40288;SDS011;28991;52.028;5.526;2024-03-25T10:40:49;3.28;;;0.70;;
40288;SDS011;28991;52.028;5.526;2024-03-25T10:43:19;2.35;;;1.00;;
40288;SDS011;28991;52.028;5.526;2024-03-25T10:45:49;4.10;;;0.90;;
40288;SDS011;28991;52.028;5.526;2024-03-25T10:48:27;1.80;;;0.70;;
40288;SDS011;28991;52.028;5.526;2024-03-25T10:50:55;1.50;;;0.80;;
40288;SDS011;28991;52.028;5.526;2024-03-25T10:53:21;1.15;;;0.80;;
40288;SDS011;28991;52.028;5.526;2024-03-25T10:55:48;2.13;;;0.93;;
40288;SDS011;28991;52.028;5.526;2024-03-25T10:58:19;7.13;;;0.73;;
40288;SDS011;28991;52.028;5.526;2024-03-25T11:00:47;3.75;;;0.88;;
40288;SDS011;28991;52.028;5.526;2024-03-25T11:03:13;2.67;;;0.95;;
40288;SDS011;28991;52.028;5.526;2024-03-25T11:05:39;2.70;;;1.00;;
40288;SDS011;28991;52.028;5.526;2024-03-25T11:08:12;1.45;;;1.08;;
40288;SDS011;28991;52.028;5.526;2024-03-25T11:10:45;3.90;;;0.98;;
40288;SDS011;28991;52.028;5.526;2024-03-25T11:13:17;3.13;;;1.17;;
40288;SDS011;28991;52.028;5.526;2024-03-25T11:15:47;3.17;;;0.80;;
40288;SDS011;28991;52.028;5.526;2024-03-25T11:18:14;0.95;;;0.60;;
40288;SDS011;28991;52.028;5.526;2024-03-25T11:20:48;1.90;;;1.10;;
40288;SDS011;28991;52.028;5.526;2024-03-25T11:23:36;1.95;;;0.80;;
40288;SDS011;28991;52.028;5.526;2024-03-25T11:26:20;1.80;;;0.80;;
40288;SDS011;28991;52.028;5.526;2024-03-25T11:28:47;2.80;;;0.80;;
40288;SDS011;28991;52.028;5.526;2024-03-25T11:31:13;3.72;;;0.88;;
40288;SDS011;28991;52.028;5.526;2024-03-25T11:33:40;1.25;;;0.80;;
40288;SDS011;28991;52.028;5.526;2024-03-25T11:36:05;2.05;;;0.80;;
40288;SDS011;28991;52.028;5.526;2024-03-25T11:38:31;2.13;;;0.90;;
40288;SDS011;28991;52.028;5.526;2024-03-25T11:40:57;1.75;;;0.80;;
40288;SDS011;28991;52.028;5.526;2024-03-25T11:43:23;2.10;;;0.80;;
40288;SDS011;28991;52.028;5.526;2024-03-25T11:45:50;5.10;;;0.80;;
40288;SDS011;28991;52.028;5.526;2024-03-25T11:48:15;1.20;;;0.52;;
40288;SDS011;28991;52.028;5.526;2024-03-25T11:50:44;1.63;;;0.75;;
40288;SDS011;28991;52.028;5.526;2024-03-25T11:53:11;2.88;;;1.23;;
40288;SDS011;28991;52.028;5.526;2024-03-25T11:55:40;1.23;;;0.70;;
40288;SDS011;28991;52.028;5.526;2024-03-25T11:58:06;3.97;;;0.65;;
40288;SDS011;28991;52.028;5.526;2024-03-25T12:00:32;3.08;;;0.70;;
40288;SDS011;28991;52.028;5.526;2024-03-25T12:02:58;1.23;;;0.63;;
40288;SDS011;28991;52.028;5.526;2024-03-25T12:05:24;1.52;;;0.70;;
40288;SDS011;28991;52.028;5.526;2024-03-25T12:07:49;1.73;;;0.75;;
40288;SDS011;28991;52.028;5.526;2024-03-25T12:10:16;2.53;;;0.95;;
40288;SDS011;28991;52.028;5.526;2024-03-25T12:13:00;3.58;;;0.80;;
40288;SDS011;28991;52.028;5.526;2024-03-25T12:15:26;1.65;;;1.02;;
40288;SDS011;28991;52.028;5.526;2024-03-25T12:17:52;1.15;;;0.50;;
40288;SDS011;28991;52.028;5.526;2024-03-25T12:20:17;2.90;;;0.80;;
40288;SDS011;28991;52.028;5.526;2024-03-25T12:22:44;0.50;;;0.45;;
40288;SDS011;28991;52.028;5.526;2024-03-25T12:25:09;3.65;;;0.73;;
40288;SDS011;28991;52.028;5.526;2024-03-25T12:27:36;0.93;;;0.70;;
40288;SDS011;28991;52.028;5.526;2024-03-25T12:30:07;1.17;;;0.90;;
40288;SDS011;28991;52.028;5.526;2024-03-25T12:32:44;2.78;;;0.88;;
40288;SDS011;28991;52.028;5.526;2024-03-25T12:35:11;1.45;;;0.63;;
40288;SDS011;28991;52.028;5.526;2024-03-25T12:37:44;1.85;;;1.10;;
40288;SDS011;28991;52.028;5.526;2024-03-25T12:40:10;0.95;;;0.50;;
40288;SDS011;28991;52.028;5.526;2024-03-25T12:42:39;3.00;;;1.05;;
40288;SDS011;28991;52.028;5.526;2024-03-25T12:45:05;2.90;;;0.70;;
40288;SDS011;28991;52.028;5.526;2024-03-25T12:47:31;2.00;;;0.90;;
40288;SDS011;28991;52.028;5.526;2024-03-25T12:49:57;1.67;;;0.98;;
40288;SDS011;28991;52.028;5.526;2024-03-25T12:52:23;2.30;;;0.80;;
40288;SDS011;28991;52.028;5.526;2024-03-25T12:54:49;2.90;;;0.90;;
40288;SDS011;28991;52.028;5.526;2024-03-25T12:57:14;1.15;;;0.70;;
40288;SDS011;28991;52.028;5.526;2024-03-25T12:59:40;1.77;;;0.98;;
40288;SDS011;28991;52.028;5.526;2024-03-25T13:02:06;1.58;;;0.85;;
40288;SDS011;28991;52.028;5.526;2024-03-25T13:04:35;1.00;;;0.75;;
40288;SDS011;28991;52.028;5.526;2024-03-25T13:07:02;2.47;;;0.90;;
40288;SDS011;28991;52.028;5.526;2024-03-25T13:09:28;1.98;;;0.93;;
40288;SDS011;28991;52.028;5.526;2024-03-25T13:11:55;1.30;;;0.70;;
40288;SDS011;28991;52.028;5.526;2024-03-25T13:14:24;0.80;;;0.60;;
40288;SDS011;28991;52.028;5.526;2024-03-25T13:16:50;1.52;;;0.50;;
40288;SDS011;28991;52.028;5.526;2024-03-25T13:19:15;3.30;;;1.00;;
40288;SDS011;28991;52.028;5.526;2024-03-25T13:21:42;1.38;;;0.70;;
40288;SDS011;28991;52.028;5.526;2024-03-25T13:24:08;2.70;;;1.17;;
40288;SDS011;28991;52.028;5.526;2024-03-25T13:26:33;4.18;;;1.20;;
40288;SDS011;28991;52.028;5.526;2024-03-25T13:28:59;7.53;;;1.10;;
40288;SDS011;28991;52.028;5.526;2024-03-25T13:31:25;3.50;;;1.20;;
40288;SDS011;28991;52.028;5.526;2024-03-25T13:33:50;5.50;;;1.40;;
40288;SDS011;28991;52.028;5.526;2024-03-25T13:36:16;5.80;;;1.23;;
40288;SDS011;28991;52.028;5.526;2024-03-25T13:38:42;2.85;;;1.20;;
40288;SDS011;28991;52.028;5.526;2024-03-25T13:41:08;3.28;;;1.17;;
40288;SDS011;28991;52.028;5.526;2024-03-25T13:43:34;7.82;;;1.20;;
40288;SDS011;28991;52.028;5.526;2024-03-25T13:45:59;2.17;;;0.90;;
40288;SDS011;28991;52.028;5.526;2024-03-25T13:48:25;4.53;;;0.98;;
40288;SDS011;28991;52.028;5.526;2024-03-25T13:50:53;1.45;;;0.75;;
40288;SDS011;28991;52.028;5.526;2024-03-25T13:53:19;2.53;;;1.00;;
40288;SDS011;28991;52.028;5.526;2024-03-25T13:55:45;3.25;;;1.00;;
40288;SDS011;28991;52.028;5.526;2024-03-25T13:58:11;3.22;;;0.77;;
40288;SDS011;28991;52.028;5.526;2024-03-25T14:00:36;1.98;;;1.10;;
40288;SDS011;28991;52.028;5.526;2024-03-25T14:03:03;2.00;;;0.68;;
40288;SDS011;28991;52.028;5.526;2024-03-25T14:05:28;3.60;;;0.70;;
40288;SDS011;28991;52.028;5.526;2024-03-25T14:07:54;3.58;;;0.88;;
40288;SDS011;28991;52.028;5.526;2024-03-25T14:10:20;3.00;;;1.10;;
40288;SDS011;28991;52.028;5.526;2024-03-25T14:12:46;2.72;;;1.52;;
40288;SDS011;28991;52.028;5.526;2024-03-25T14:15:12;7.72;;;1.50;;
40288;SDS011;28991;52.028;5.526;2024-03-25T14:17:37;6.45;;;1.33;;
40288;SDS011;28991;52.028;5.526;2024-03-25T14:20:03;5.88;;;2.38;;
40288;SDS011;28991;52.028;5.526;2024-03-25T14:22:31;10.65;;;4.95;;
40288;SDS011;28991;52.028;5.526;2024-03-25T14:24:57;11.73;;;4.63;;
40288;SDS011;28991;52.028;5.526;2024-03-25T14:27:23;11.07;;;5.20;;
40288;SDS011;28991;52.028;5.526;2024-03-25T14:29:49;11.18;;;4.30;;
40288;SDS011;28991;52.028;5.526;2024-03-25T14:32:15;11.10;;;4.13;;
40288;SDS011;28991;52.028;5.526;2024-03-25T14:34:44;8.65;;;4.15;;
40288;SDS011;28991;52.028;5.526;2024-03-25T14:37:10;7.93;;;3.38;;
40288;SDS011;28991;52.028;5.526;2024-03-25T14:39:36;7.57;;;3.50;;
40288;SDS011;28991;52.028;5.526;2024-03-25T14:42:01;6.22;;;2.80;;
40288;SDS011;28991;52.028;5.526;2024-03-25T14:44:28;6.53;;;2.75;;